sensor_id;sensor_type;location;lat;lon;timestamp;temperature;humidity
48535;DHT22;34323;52.022;5.686;2022-12-29T00:01:17;13.40;99.90
48535;DHT22;34323;52.022;5.686;2022-12-29T00:03:45;13.70;99.90
48535;DHT22;34323;52.022;5.686;2022-12-29T00:06:11;13.60;99.90
48535;DHT22;34323;52.022;5.686;2022-12-29T00:08:37;13.80;99.90
48535;DHT22;34323;52.022;5.686;2022-12-29T00:11:14;13.90;99.90
48535;DHT22;34323;52.022;5.686;2022-12-29T00:13:40;14.00;99.90
48535;DHT22;34323;52.022;5.686;2022-12-29T00:16:27;13.90;99.90
48535;DHT22;34323;52.022;5.686;2022-12-29T00:18:53;13.90;99.90
48535;DHT22;34323;52.022;5.686;2022-12-29T00:21:21;13.80;99.90
48535;DHT22;34323;52.022;5.686;2022-12-29T00:24:08;13.70;99.90
48535;DHT22;34323;52.022;5.686;2022-12-29T00:29:45;13.80;99.90
48535;DHT22;34323;52.022;5.686;2022-12-29T00:32:29;13.70;99.90
48535;DHT22;34323;52.022;5.686;2022-12-29T00:35:19;13.40;99.90
48535;DHT22;34323;52.022;5.686;2022-12-29T00:37:47;13.60;99.90
48535;DHT22;34323;52.022;5.686;2022-12-29T00:40:32;14.00;99.90
48535;DHT22;34323;52.022;5.686;2022-12-29T00:43:16;14.30;99.90
48535;DHT22;34323;52.022;5.686;2022-12-29T00:46:00;14.10;99.90
48535;DHT22;34323;52.022;5.686;2022-12-29T00:48:25;14.00;99.90
48535;DHT22;34323;52.022;5.686;2022-12-29T00:51:10;14.30;99.90
48535;DHT22;34323;52.022;5.686;2022-12-29T00:53:35;14.40;99.90
48535;DHT22;34323;52.022;5.686;2022-12-29T00:56:01;14.60;99.90
48535;DHT22;34323;52.022;5.686;2022-12-29T00:58:28;14.60;99.90
48535;DHT22;34323;52.022;5.686;2022-12-29T01:01:01;14.50;99.90
48535;DHT22;34323;52.022;5.686;2022-12-29T01:03:27;14.00;99.90
48535;DHT22;34323;52.022;5.686;2022-12-29T01:05:52;13.70;99.90
48535;DHT22;34323;52.022;5.686;2022-12-29T01:08:18;13.80;99.90
48535;DHT22;34323;52.022;5.686;2022-12-29T01:10:44;13.70;99.90
48535;DHT22;34323;52.022;5.686;2022-12-29T01:13:09;13.70;99.90
48535;DHT22;34323;52.022;5.686;2022-12-29T01:15:35;13.70;99.90
48535;DHT22;34323;52.022;5.686;2022-12-29T01:18:00;13.60;99.90
48535;DHT22;34323;52.022;5.686;2022-12-29T01:20:26;13.70;99.90
48535;DHT22;34323;52.022;5.686;2022-12-29T01:22:54;13.60;99.90
48535;DHT22;34323;52.022;5.686;2022-12-29T01:25:20;13.60;99.90
48535;DHT22;34323;52.022;5.686;2022-12-29T01:27:46;13.90;99.90
48535;DHT22;34323;52.022;5.686;2022-12-29T01:30:12;13.80;99.90
48535;DHT22;34323;52.022;5.686;2022-12-29T01:32:37;14.00;99.90
48535;DHT22;34323;52.022;5.686;2022-12-29T01:35:03;14.20;99.90
48535;DHT22;34323;52.022;5.686;2022-12-29T01:37:29;13.80;99.90
48535;DHT22;34323;52.022;5.686;2022-12-29T01:39:55;13.50;99.90
48535;DHT22;34323;52.022;5.686;2022-12-29T01:42:24;13.10;99.90
48535;DHT22;34323;52.022;5.686;2022-12-29T01:44:54;13.00;99.90
48535;DHT22;34323;52.022;5.686;2022-12-29T01:47:38;13.30;99.90
48535;DHT22;34323;52.022;5.686;2022-12-29T01:50:10;13.40;99.90
48535;DHT22;34323;52.022;5.686;2022-12-29T01:52:41;13.50;99.90
48535;DHT22;34323;52.022;5.686;2022-12-29T01:55:10;13.50;99.90
48535;DHT22;34323;52.022;5.686;2022-12-29T01:57:39;13.10;99.90
48535;DHT22;34323;52.022;5.686;2022-12-29T02:00:12;13.40;99.90
48535;DHT22;34323;52.022;5.686;2022-12-29T02:02:41;13.40;99.90
48535;DHT22;34323;52.022;5.686;2022-12-29T02:05:17;13.60;99.90
48535;DHT22;34323;52.022;5.686;2022-12-29T02:07:44;13.50;99.90
48535;DHT22;34323;52.022;5.686;2022-12-29T02:10:10;13.40;99.90
48535;DHT22;34323;52.022;5.686;2022-12-29T02:12:36;13.50;99.90
48535;DHT22;34323;52.022;5.686;2022-12-29T02:15:02;13.50;99.90
48535;DHT22;34323;52.022;5.686;2022-12-29T02:26:02;13.60;99.90
48535;DHT22;34323;52.022;5.686;2022-12-29T02:36:47;13.20;99.90
48535;DHT22;34323;52.022;5.686;2022-12-29T02:39:38;13.00;99.90
48535;DHT22;34323;52.022;5.686;2022-12-29T02:42:36;13.40;99.90
48535;DHT22;34323;52.022;5.686;2022-12-29T02:45:17;13.70;99.90
48535;DHT22;34323;52.022;5.686;2022-12-29T02:48:09;14.10;99.90
48535;DHT22;34323;52.022;5.686;2022-12-29T02:50:59;13.90;99.90
48535;DHT22;34323;52.022;5.686;2022-12-29T02:53:27;13.50;99.90
48535;DHT22;34323;52.022;5.686;2022-12-29T02:56:12;13.80;99.90
48535;DHT22;34323;52.022;5.686;2022-12-29T02:58:38;13.90;99.90
48535;DHT22;34323;52.022;5.686;2022-12-29T03:01:16;13.70;99.90
48535;DHT22;34323;52.022;5.686;2022-12-29T03:03:49;13.60;99.90
48535;DHT22;34323;52.022;5.686;2022-12-29T03:06:47;13.50;99.90
48535;DHT22;34323;52.022;5.686;2022-12-29T03:12:31;14.00;99.90
48535;DHT22;34323;52.022;5.686;2022-12-29T03:15:23;14.00;99.90
48535;DHT22;34323;52.022;5.686;2022-12-29T03:18:15;13.70;99.90
48535;DHT22;34323;52.022;5.686;2022-12-29T03:20:58;13.60;99.90
48535;DHT22;34323;52.022;5.686;2022-12-29T03:23:27;13.70;99.90
48535;DHT22;34323;52.022;5.686;2022-12-29T03:25:56;13.70;99.90
48535;DHT22;34323;52.022;5.686;2022-12-29T03:28:26;14.00;99.90
48535;DHT22;34323;52.022;5.686;2022-12-29T03:30:53;13.90;99.90
48535;DHT22;34323;52.022;5.686;2022-12-29T03:33:23;14.20;99.90
48535;DHT22;34323;52.022;5.686;2022-12-29T03:35:51;14.00;99.90
48535;DHT22;34323;52.022;5.686;2022-12-29T03:38:27;14.10;99.90
48535;DHT22;34323;52.022;5.686;2022-12-29T03:40:57;14.20;99.90
48535;DHT22;34323;52.022;5.686;2022-12-29T03:43:24;14.20;99.90
48535;DHT22;34323;52.022;5.686;2022-12-29T03:45:50;14.30;99.90
48535;DHT22;34323;52.022;5.686;2022-12-29T03:48:16;14.60;99.90
48535;DHT22;34323;52.022;5.686;2022-12-29T03:50:41;14.50;99.90
48535;DHT22;34323;52.022;5.686;2022-12-29T03:53:07;13.90;99.90
48535;DHT22;34323;52.022;5.686;2022-12-29T03:55:33;13.90;99.90
48535;DHT22;34323;52.022;5.686;2022-12-29T03:57:58;13.90;99.90
48535;DHT22;34323;52.022;5.686;2022-12-29T04:00:24;13.50;99.90
48535;DHT22;34323;52.022;5.686;2022-12-29T04:02:49;13.50;99.90
48535;DHT22;34323;52.022;5.686;2022-12-29T04:05:15;13.40;99.90
48535;DHT22;34323;52.022;5.686;2022-12-29T04:07:41;13.10;99.90
48535;DHT22;34323;52.022;5.686;2022-12-29T04:10:07;13.30;99.90
48535;DHT22;34323;52.022;5.686;2022-12-29T04:12:32;13.50;99.90
48535;DHT22;34323;52.022;5.686;2022-12-29T04:14:58;13.50;99.90
48535;DHT22;34323;52.022;5.686;2022-12-29T04:17:23;13.80;99.90
48535;DHT22;34323;52.022;5.686;2022-12-29T04:19:49;14.10;99.90
48535;DHT22;34323;52.022;5.686;2022-12-29T04:22:14;14.20;99.90
48535;DHT22;34323;52.022;5.686;2022-12-29T04:24:40;14.00;99.90
48535;DHT22;34323;52.022;5.686;2022-12-29T04:27:05;14.00;99.90
48535;DHT22;34323;52.022;5.686;2022-12-29T04:29:31;13.80;99.90
48535;DHT22;34323;52.022;5.686;2022-12-29T04:31:56;13.70;99.90
48535;DHT22;34323;52.022;5.686;2022-12-29T04:34:22;13.90;99.90
48535;DHT22;34323;52.022;5.686;2022-12-29T04:36:48;13.80;99.90
48535;DHT22;34323;52.022;5.686;2022-12-29T04:39:13;14.10;99.90
48535;DHT22;34323;52.022;5.686;2022-12-29T04:41:39;14.10;99.90
48535;DHT22;34323;52.022;5.686;2022-12-29T04:44:04;13.80;99.90
48535;DHT22;34323;52.022;5.686;2022-12-29T04:46:30;13.70;99.90
48535;DHT22;34323;52.022;5.686;2022-12-29T04:48:56;13.80;99.90
48535;DHT22;34323;52.022;5.686;2022-12-29T04:51:21;13.80;99.90
48535;DHT22;34323;52.022;5.686;2022-12-29T04:53:47;14.20;99.90
48535;DHT22;34323;52.022;5.686;2022-12-29T04:56:13;14.10;99.90
48535;DHT22;34323;52.022;5.686;2022-12-29T04:58:39;13.90;99.90
48535;DHT22;34323;52.022;5.686;2022-12-29T05:01:04;14.00;99.90
48535;DHT22;34323;52.022;5.686;2022-12-29T05:03:30;14.30;99.90
48535;DHT22;34323;52.022;5.686;2022-12-29T05:05:56;14.40;99.90
48535;DHT22;34323;52.022;5.686;2022-12-29T05:08:22;14.20;99.90
48535;DHT22;34323;52.022;5.686;2022-12-29T05:10:50;14.30;99.90
48535;DHT22;34323;52.022;5.686;2022-12-29T05:13:16;14.40;99.90
48535;DHT22;34323;52.022;5.686;2022-12-29T05:15:49;14.50;99.90
48535;DHT22;34323;52.022;5.686;2022-12-29T05:18:15;14.30;99.90
48535;DHT22;34323;52.022;5.686;2022-12-29T05:20:41;14.30;99.90
48535;DHT22;34323;52.022;5.686;2022-12-29T05:23:06;14.30;99.90
48535;DHT22;34323;52.022;5.686;2022-12-29T05:25:32;14.00;99.90
48535;DHT22;34323;52.022;5.686;2022-12-29T05:27:57;13.90;99.90
48535;DHT22;34323;52.022;5.686;2022-12-29T05:30:23;13.60;99.90
48535;DHT22;34323;52.022;5.686;2022-12-29T05:32:49;13.50;99.90
48535;DHT22;34323;52.022;5.686;2022-12-29T05:35:14;13.30;99.90
48535;DHT22;34323;52.022;5.686;2022-12-29T05:37:40;13.50;99.90
48535;DHT22;34323;52.022;5.686;2022-12-29T05:40:06;13.80;99.90
48535;DHT22;34323;52.022;5.686;2022-12-29T05:42:32;14.10;99.90
48535;DHT22;34323;52.022;5.686;2022-12-29T05:44:58;14.00;99.90
48535;DHT22;34323;52.022;5.686;2022-12-29T05:47:23;13.80;99.90
48535;DHT22;34323;52.022;5.686;2022-12-29T05:49:49;13.60;99.90
48535;DHT22;34323;52.022;5.686;2022-12-29T05:52:14;13.90;99.90
48535;DHT22;34323;52.022;5.686;2022-12-29T05:54:40;13.50;99.90
48535;DHT22;34323;52.022;5.686;2022-12-29T05:57:05;13.10;99.90
48535;DHT22;34323;52.022;5.686;2022-12-29T05:59:31;12.50;99.90
48535;DHT22;34323;52.022;5.686;2022-12-29T06:01:56;12.70;99.90
48535;DHT22;34323;52.022;5.686;2022-12-29T06:04:22;13.10;99.90
48535;DHT22;34323;52.022;5.686;2022-12-29T06:06:47;13.20;99.90
48535;DHT22;34323;52.022;5.686;2022-12-29T06:09:13;13.30;99.90
48535;DHT22;34323;52.022;5.686;2022-12-29T06:11:39;13.50;99.90
48535;DHT22;34323;52.022;5.686;2022-12-29T06:14:04;13.40;99.90
48535;DHT22;34323;52.022;5.686;2022-12-29T06:16:30;13.40;99.90
48535;DHT22;34323;52.022;5.686;2022-12-29T06:18:55;12.70;99.90
48535;DHT22;34323;52.022;5.686;2022-12-29T06:21:21;12.70;99.90
48535;DHT22;34323;52.022;5.686;2022-12-29T06:23:46;12.30;99.90
48535;DHT22;34323;52.022;5.686;2022-12-29T06:26:12;12.20;99.90
48535;DHT22;34323;52.022;5.686;2022-12-29T06:28:37;12.60;99.90
48535;DHT22;34323;52.022;5.686;2022-12-29T06:31:03;12.80;99.90
48535;DHT22;34323;52.022;5.686;2022-12-29T06:33:29;13.00;99.90
48535;DHT22;34323;52.022;5.686;2022-12-29T06:35:55;12.90;99.90
48535;DHT22;34323;52.022;5.686;2022-12-29T06:38:20;13.10;99.90
48535;DHT22;34323;52.022;5.686;2022-12-29T06:40:46;13.00;99.90
48535;DHT22;34323;52.022;5.686;2022-12-29T06:43:11;13.00;99.90
48535;DHT22;34323;52.022;5.686;2022-12-29T06:45:38;13.40;99.90
48535;DHT22;34323;52.022;5.686;2022-12-29T06:48:05;13.30;99.90
48535;DHT22;34323;52.022;5.686;2022-12-29T06:50:31;13.20;99.90
48535;DHT22;34323;52.022;5.686;2022-12-29T06:52:56;13.10;99.90
48535;DHT22;34323;52.022;5.686;2022-12-29T06:55:22;13.00;99.90
48535;DHT22;34323;52.022;5.686;2022-12-29T06:57:47;12.90;99.90
48535;DHT22;34323;52.022;5.686;2022-12-29T07:00:13;12.80;99.90
48535;DHT22;34323;52.022;5.686;2022-12-29T07:02:39;13.30;99.90
48535;DHT22;34323;52.022;5.686;2022-12-29T07:05:05;13.10;99.90
48535;DHT22;34323;52.022;5.686;2022-12-29T07:07:30;12.70;99.90
48535;DHT22;34323;52.022;5.686;2022-12-29T07:09:56;12.70;99.90
48535;DHT22;34323;52.022;5.686;2022-12-29T07:12:21;12.90;99.90
48535;DHT22;34323;52.022;5.686;2022-12-29T07:14:47;13.30;99.90
48535;DHT22;34323;52.022;5.686;2022-12-29T07:17:12;13.60;99.90
48535;DHT22;34323;52.022;5.686;2022-12-29T07:19:38;13.90;99.90
48535;DHT22;34323;52.022;5.686;2022-12-29T07:22:03;13.80;99.90
48535;DHT22;34323;52.022;5.686;2022-12-29T07:24:29;14.00;99.90
48535;DHT22;34323;52.022;5.686;2022-12-29T07:26:55;14.00;99.90
48535;DHT22;34323;52.022;5.686;2022-12-29T07:29:20;14.10;99.90
48535;DHT22;34323;52.022;5.686;2022-12-29T07:31:46;14.20;99.90
48535;DHT22;34323;52.022;5.686;2022-12-29T07:34:11;13.90;99.90
48535;DHT22;34323;52.022;5.686;2022-12-29T07:36:37;14.00;99.90
48535;DHT22;34323;52.022;5.686;2022-12-29T07:39:03;14.20;99.90
48535;DHT22;34323;52.022;5.686;2022-12-29T07:41:29;14.60;99.90
48535;DHT22;34323;52.022;5.686;2022-12-29T07:43:54;15.00;99.90
48535;DHT22;34323;52.022;5.686;2022-12-29T07:46:20;14.20;99.90
48535;DHT22;34323;52.022;5.686;2022-12-29T07:48:45;13.80;99.90
48535;DHT22;34323;52.022;5.686;2022-12-29T07:51:11;13.80;99.90
48535;DHT22;34323;52.022;5.686;2022-12-29T07:53:36;13.70;99.90
48535;DHT22;34323;52.022;5.686;2022-12-29T07:56:02;13.00;99.90
48535;DHT22;34323;52.022;5.686;2022-12-29T07:58:28;12.60;99.90
48535;DHT22;34323;52.022;5.686;2022-12-29T08:00:56;12.70;99.90
48535;DHT22;34323;52.022;5.686;2022-12-29T08:03:23;12.60;99.90
48535;DHT22;34323;52.022;5.686;2022-12-29T08:05:50;12.20;99.90
48535;DHT22;34323;52.022;5.686;2022-12-29T08:08:15;12.20;99.90
48535;DHT22;34323;52.022;5.686;2022-12-29T08:10:41;12.10;99.90
48535;DHT22;34323;52.022;5.686;2022-12-29T08:13:06;12.00;99.90
48535;DHT22;34323;52.022;5.686;2022-12-29T08:15:32;12.20;99.90
48535;DHT22;34323;52.022;5.686;2022-12-29T08:17:58;12.20;99.90
48535;DHT22;34323;52.022;5.686;2022-12-29T08:20:23;12.50;99.90
48535;DHT22;34323;52.022;5.686;2022-12-29T08:22:50;12.60;99.90
48535;DHT22;34323;52.022;5.686;2022-12-29T08:25:15;12.60;99.90
48535;DHT22;34323;52.022;5.686;2022-12-29T08:27:41;12.20;99.90
48535;DHT22;34323;52.022;5.686;2022-12-29T08:30:07;12.20;99.90
48535;DHT22;34323;52.022;5.686;2022-12-29T08:32:33;12.40;99.90
48535;DHT22;34323;52.022;5.686;2022-12-29T08:34:59;12.50;99.90
48535;DHT22;34323;52.022;5.686;2022-12-29T08:37:24;12.70;99.90
48535;DHT22;34323;52.022;5.686;2022-12-29T08:39:50;12.30;99.90
48535;DHT22;34323;52.022;5.686;2022-12-29T08:42:15;12.30;99.90
48535;DHT22;34323;52.022;5.686;2022-12-29T08:44:41;12.30;99.90
48535;DHT22;34323;52.022;5.686;2022-12-29T08:47:06;12.40;99.90
48535;DHT22;34323;52.022;5.686;2022-12-29T08:49:33;12.50;99.90
48535;DHT22;34323;52.022;5.686;2022-12-29T08:51:59;12.50;99.90
48535;DHT22;34323;52.022;5.686;2022-12-29T08:54:24;12.30;99.90
48535;DHT22;34323;52.022;5.686;2022-12-29T08:56:50;12.50;99.90
48535;DHT22;34323;52.022;5.686;2022-12-29T08:59:16;12.50;99.90
48535;DHT22;34323;52.022;5.686;2022-12-29T09:01:41;12.50;99.90
48535;DHT22;34323;52.022;5.686;2022-12-29T09:04:07;12.20;99.90
48535;DHT22;34323;52.022;5.686;2022-12-29T09:06:33;12.30;99.90
48535;DHT22;34323;52.022;5.686;2022-12-29T09:08:59;12.70;99.90
48535;DHT22;34323;52.022;5.686;2022-12-29T09:11:25;12.70;99.90
48535;DHT22;34323;52.022;5.686;2022-12-29T09:13:51;12.90;99.90
48535;DHT22;34323;52.022;5.686;2022-12-29T09:16:18;12.60;99.90
48535;DHT22;34323;52.022;5.686;2022-12-29T09:18:45;12.60;99.90
48535;DHT22;34323;52.022;5.686;2022-12-29T09:21:11;12.50;99.90
48535;DHT22;34323;52.022;5.686;2022-12-29T09:23:38;12.40;99.90
48535;DHT22;34323;52.022;5.686;2022-12-29T09:26:03;12.40;99.90
48535;DHT22;34323;52.022;5.686;2022-12-29T09:28:30;12.00;99.90
48535;DHT22;34323;52.022;5.686;2022-12-29T09:30:57;12.50;99.90
48535;DHT22;34323;52.022;5.686;2022-12-29T09:33:24;12.80;99.90
48535;DHT22;34323;52.022;5.686;2022-12-29T09:35:55;12.60;99.90
48535;DHT22;34323;52.022;5.686;2022-12-29T09:38:21;12.60;99.90
48535;DHT22;34323;52.022;5.686;2022-12-29T09:40:53;12.70;99.90
48535;DHT22;34323;52.022;5.686;2022-12-29T09:43:30;13.10;99.90
48535;DHT22;34323;52.022;5.686;2022-12-29T09:46:00;13.00;99.90
48535;DHT22;34323;52.022;5.686;2022-12-29T09:48:34;12.80;99.90
48535;DHT22;34323;52.022;5.686;2022-12-29T09:51:05;12.50;99.90
48535;DHT22;34323;52.022;5.686;2022-12-29T09:53:45;12.40;99.90
48535;DHT22;34323;52.022;5.686;2022-12-29T09:56:19;12.10;99.90
48535;DHT22;34323;52.022;5.686;2022-12-29T09:58:52;12.40;99.90
48535;DHT22;34323;52.022;5.686;2022-12-29T10:03:55;12.80;99.90
48535;DHT22;34323;52.022;5.686;2022-12-29T10:12:02;13.20;99.90
48535;DHT22;34323;52.022;5.686;2022-12-29T10:19:53;12.70;99.90
48535;DHT22;34323;52.022;5.686;2022-12-29T10:25:19;12.70;99.90
48535;DHT22;34323;52.022;5.686;2022-12-29T10:27:49;12.10;99.90
48535;DHT22;34323;52.022;5.686;2022-12-29T10:30:17;12.10;99.90
48535;DHT22;34323;52.022;5.686;2022-12-29T10:35:28;12.30;99.90
48535;DHT22;34323;52.022;5.686;2022-12-29T10:38:13;12.50;99.90
48535;DHT22;34323;52.022;5.686;2022-12-29T10:41:01;12.50;99.90
48535;DHT22;34323;52.022;5.686;2022-12-29T10:43:32;12.70;99.90
48535;DHT22;34323;52.022;5.686;2022-12-29T10:46:02;12.70;99.90
48535;DHT22;34323;52.022;5.686;2022-12-29T10:48:35;11.90;99.90
48535;DHT22;34323;52.022;5.686;2022-12-29T10:51:08;12.10;99.90
48535;DHT22;34323;52.022;5.686;2022-12-29T10:53:53;12.40;99.90
48535;DHT22;34323;52.022;5.686;2022-12-29T10:56:32;11.90;99.90
48535;DHT22;34323;52.022;5.686;2022-12-29T10:59:03;11.60;99.90
48535;DHT22;34323;52.022;5.686;2022-12-29T11:01:37;11.70;99.90
48535;DHT22;34323;52.022;5.686;2022-12-29T11:06:59;12.30;99.90
48535;DHT22;34323;52.022;5.686;2022-12-29T11:09:28;12.20;99.90
48535;DHT22;34323;52.022;5.686;2022-12-29T11:11:55;12.40;99.90
48535;DHT22;34323;52.022;5.686;2022-12-29T11:14:31;12.40;99.90
48535;DHT22;34323;52.022;5.686;2022-12-29T11:17:02;12.50;99.90
48535;DHT22;34323;52.022;5.686;2022-12-29T11:19:32;12.60;99.90
48535;DHT22;34323;52.022;5.686;2022-12-29T11:22:24;12.40;99.90
48535;DHT22;34323;52.022;5.686;2022-12-29T11:24:51;12.60;99.90
48535;DHT22;34323;52.022;5.686;2022-12-29T11:27:23;12.80;99.90
48535;DHT22;34323;52.022;5.686;2022-12-29T11:29:51;12.90;99.90
48535;DHT22;34323;52.022;5.686;2022-12-29T11:32:20;12.80;99.90
48535;DHT22;34323;52.022;5.686;2022-12-29T11:34:47;12.20;99.90
48535;DHT22;34323;52.022;5.686;2022-12-29T11:37:17;12.10;99.90
48535;DHT22;34323;52.022;5.686;2022-12-29T11:39:59;12.30;99.90
48535;DHT22;34323;52.022;5.686;2022-12-29T11:42:33;12.50;99.90
48535;DHT22;34323;52.022;5.686;2022-12-29T11:45:06;12.70;99.90
48535;DHT22;34323;52.022;5.686;2022-12-29T11:47:32;12.90;99.90
48535;DHT22;34323;52.022;5.686;2022-12-29T11:50:05;12.90;99.90
48535;DHT22;34323;52.022;5.686;2022-12-29T11:52:34;13.10;99.90
48535;DHT22;34323;52.022;5.686;2022-12-29T11:55:04;13.50;99.90
48535;DHT22;34323;52.022;5.686;2022-12-29T11:57:32;13.60;99.90
48535;DHT22;34323;52.022;5.686;2022-12-29T12:00:03;13.70;99.90
48535;DHT22;34323;52.022;5.686;2022-12-29T12:02:40;13.70;99.90
48535;DHT22;34323;52.022;5.686;2022-12-29T12:05:30;13.50;99.90
48535;DHT22;34323;52.022;5.686;2022-12-29T12:08:03;13.40;99.90
48535;DHT22;34323;52.022;5.686;2022-12-29T12:10:34;14.00;99.90
48535;DHT22;34323;52.022;5.686;2022-12-29T12:13:14;14.30;99.90
48535;DHT22;34323;52.022;5.686;2022-12-29T12:16:13;14.40;99.90
48535;DHT22;34323;52.022;5.686;2022-12-29T12:18:57;14.00;99.90
48535;DHT22;34323;52.022;5.686;2022-12-29T12:21:38;13.60;99.90
48535;DHT22;34323;52.022;5.686;2022-12-29T12:26:41;13.20;99.90
48535;DHT22;34323;52.022;5.686;2022-12-29T12:29:14;13.00;99.90
48535;DHT22;34323;52.022;5.686;2022-12-29T12:34:37;12.70;99.90
48535;DHT22;34323;52.022;5.686;2022-12-29T12:37:22;12.70;99.90
48535;DHT22;34323;52.022;5.686;2022-12-29T12:40:19;12.70;99.90
48535;DHT22;34323;52.022;5.686;2022-12-29T12:59:09;13.00;99.90
48535;DHT22;34323;52.022;5.686;2022-12-29T13:04:42;13.00;99.90
48535;DHT22;34323;52.022;5.686;2022-12-29T13:07:36;13.40;99.90
48535;DHT22;34323;52.022;5.686;2022-12-29T13:16:02;13.20;99.90
48535;DHT22;34323;52.022;5.686;2022-12-29T13:18:48;13.40;99.90
48535;DHT22;34323;52.022;5.686;2022-12-29T13:29:39;13.60;99.90
48535;DHT22;34323;52.022;5.686;2022-12-29T13:32:40;13.80;99.90
48535;DHT22;34323;52.022;5.686;2022-12-29T13:35:41;13.90;99.90
48535;DHT22;34323;52.022;5.686;2022-12-29T13:38:16;13.90;99.90
48535;DHT22;34323;52.022;5.686;2022-12-29T13:40:47;14.10;99.90
48535;DHT22;34323;52.022;5.686;2022-12-29T13:43:15;13.90;99.90
48535;DHT22;34323;52.022;5.686;2022-12-29T13:45:42;13.90;99.90
48535;DHT22;34323;52.022;5.686;2022-12-29T13:48:23;13.60;99.90
48535;DHT22;34323;52.022;5.686;2022-12-29T13:50:57;13.30;99.90
48535;DHT22;34323;52.022;5.686;2022-12-29T13:53:37;13.30;99.90
48535;DHT22;34323;52.022;5.686;2022-12-29T13:56:14;13.30;99.90
48535;DHT22;34323;52.022;5.686;2022-12-29T13:58:53;13.40;99.90
48535;DHT22;34323;52.022;5.686;2022-12-29T14:01:39;13.10;99.90
48535;DHT22;34323;52.022;5.686;2022-12-29T14:04:13;13.10;99.90
48535;DHT22;34323;52.022;5.686;2022-12-29T14:06:38;13.50;99.90
48535;DHT22;34323;52.022;5.686;2022-12-29T14:09:27;13.30;99.90
48535;DHT22;34323;52.022;5.686;2022-12-29T14:11:52;12.70;99.90
48535;DHT22;34323;52.022;5.686;2022-12-29T14:14:28;12.10;99.90
48535;DHT22;34323;52.022;5.686;2022-12-29T14:17:09;12.20;99.90
48535;DHT22;34323;52.022;5.686;2022-12-29T14:19:41;12.80;99.90
48535;DHT22;34323;52.022;5.686;2022-12-29T14:22:07;13.30;99.90
48535;DHT22;34323;52.022;5.686;2022-12-29T14:35:00;13.10;99.90
48535;DHT22;34323;52.022;5.686;2022-12-29T14:37:31;12.60;99.90
48535;DHT22;34323;52.022;5.686;2022-12-29T14:40:19;12.30;99.90
48535;DHT22;34323;52.022;5.686;2022-12-29T14:42:49;12.20;99.90
48535;DHT22;34323;52.022;5.686;2022-12-29T14:47:46;13.00;99.90
48535;DHT22;34323;52.022;5.686;2022-12-29T14:57:48;12.40;99.90
48535;DHT22;34323;52.022;5.686;2022-12-29T15:00:18;12.30;99.90
48535;DHT22;34323;52.022;5.686;2022-12-29T15:03:38;12.40;99.90
48535;DHT22;34323;52.022;5.686;2022-12-29T15:05:54;12.30;99.90
48535;DHT22;34323;52.022;5.686;2022-12-29T15:08:30;11.90;99.90
48535;DHT22;34323;52.022;5.686;2022-12-29T15:11:01;12.20;99.90
48535;DHT22;34323;52.022;5.686;2022-12-29T15:13:36;12.20;99.90
48535;DHT22;34323;52.022;5.686;2022-12-29T15:16:03;12.20;99.90
48535;DHT22;34323;52.022;5.686;2022-12-29T15:18:31;12.50;99.90
48535;DHT22;34323;52.022;5.686;2022-12-29T15:20:59;12.40;99.90
48535;DHT22;34323;52.022;5.686;2022-12-29T15:23:25;12.50;99.90
48535;DHT22;34323;52.022;5.686;2022-12-29T15:26:06;12.40;99.90
48535;DHT22;34323;52.022;5.686;2022-12-29T15:28:42;12.40;99.90
48535;DHT22;34323;52.022;5.686;2022-12-29T15:31:15;12.70;99.90
48535;DHT22;34323;52.022;5.686;2022-12-29T15:33:43;13.00;99.90
48535;DHT22;34323;52.022;5.686;2022-12-29T15:36:17;12.90;99.90
48535;DHT22;34323;52.022;5.686;2022-12-29T15:38:44;12.40;99.90
48535;DHT22;34323;52.022;5.686;2022-12-29T15:41:39;12.10;99.90
48535;DHT22;34323;52.022;5.686;2022-12-29T15:44:25;11.90;99.90
48535;DHT22;34323;52.022;5.686;2022-12-29T15:46:51;11.90;99.90
48535;DHT22;34323;52.022;5.686;2022-12-29T15:49:17;11.80;99.90
48535;DHT22;34323;52.022;5.686;2022-12-29T15:51:44;11.80;99.90
48535;DHT22;34323;52.022;5.686;2022-12-29T15:54:21;12.10;99.90
48535;DHT22;34323;52.022;5.686;2022-12-29T15:56:48;12.50;99.90
48535;DHT22;34323;52.022;5.686;2022-12-29T15:59:28;12.20;99.90
48535;DHT22;34323;52.022;5.686;2022-12-29T16:01:58;12.10;99.90
48535;DHT22;34323;52.022;5.686;2022-12-29T16:04:30;12.40;99.90
48535;DHT22;34323;52.022;5.686;2022-12-29T16:07:04;12.40;99.90
48535;DHT22;34323;52.022;5.686;2022-12-29T16:09:41;12.60;99.90
48535;DHT22;34323;52.022;5.686;2022-12-29T16:12:17;12.40;99.90
48535;DHT22;34323;52.022;5.686;2022-12-29T16:14:49;12.10;99.90
48535;DHT22;34323;52.022;5.686;2022-12-29T16:17:20;12.20;99.90
48535;DHT22;34323;52.022;5.686;2022-12-29T16:19:51;12.20;99.90
48535;DHT22;34323;52.022;5.686;2022-12-29T16:24:59;11.90;99.90
48535;DHT22;34323;52.022;5.686;2022-12-29T16:27:36;11.60;99.90
48535;DHT22;34323;52.022;5.686;2022-12-29T16:30:16;12.00;99.90
48535;DHT22;34323;52.022;5.686;2022-12-29T16:32:47;12.20;99.90
48535;DHT22;34323;52.022;5.686;2022-12-29T16:35:27;12.50;99.90
48535;DHT22;34323;52.022;5.686;2022-12-29T16:38:18;12.20;99.90
48535;DHT22;34323;52.022;5.686;2022-12-29T16:43:40;11.80;99.90
48535;DHT22;34323;52.022;5.686;2022-12-29T16:46:21;12.10;99.90
48535;DHT22;34323;52.022;5.686;2022-12-29T16:48:52;12.40;99.90
48535;DHT22;34323;52.022;5.686;2022-12-29T16:51:34;12.50;99.90
48535;DHT22;34323;52.022;5.686;2022-12-29T16:54:01;12.70;99.90
48535;DHT22;34323;52.022;5.686;2022-12-29T16:56:31;12.60;99.90
48535;DHT22;34323;52.022;5.686;2022-12-29T16:59:35;12.40;99.90
48535;DHT22;34323;52.022;5.686;2022-12-29T17:02:07;12.00;99.90
48535;DHT22;34323;52.022;5.686;2022-12-29T17:04:36;11.90;99.90
48535;DHT22;34323;52.022;5.686;2022-12-29T17:07:01;12.20;99.90
48535;DHT22;34323;52.022;5.686;2022-12-29T17:09:28;12.40;99.90
48535;DHT22;34323;52.022;5.686;2022-12-29T17:11:59;12.10;99.90
48535;DHT22;34323;52.022;5.686;2022-12-29T17:14:47;12.00;99.90
48535;DHT22;34323;52.022;5.686;2022-12-29T17:17:19;11.80;99.90
48535;DHT22;34323;52.022;5.686;2022-12-29T17:19:51;11.90;99.90
48535;DHT22;34323;52.022;5.686;2022-12-29T17:22:23;12.20;99.90
48535;DHT22;34323;52.022;5.686;2022-12-29T17:24:51;12.20;99.90
48535;DHT22;34323;52.022;5.686;2022-12-29T17:27:26;12.50;99.90
48535;DHT22;34323;52.022;5.686;2022-12-29T17:29:58;12.60;99.90
48535;DHT22;34323;52.022;5.686;2022-12-29T17:32:25;12.40;99.90
48535;DHT22;34323;52.022;5.686;2022-12-29T17:34:50;12.00;99.90
48535;DHT22;34323;52.022;5.686;2022-12-29T17:37:35;12.00;99.90
48535;DHT22;34323;52.022;5.686;2022-12-29T17:40:03;12.20;99.90
48535;DHT22;34323;52.022;5.686;2022-12-29T17:42:30;12.00;99.90